sensor_id;sensor_type;location;lat;lon;timestamp;P1;durP1;ratioP1;P2;durP2;ratioP2
77955;SDS011;67152;36.266;32.294;2023-11-21T00:02:11;3.85;;;1.40;;
77955;SDS011;67152;36.266;32.294;2023-11-21T00:04:56;2.42;;;0.77;;
77955;SDS011;67152;36.266;32.294;2023-11-21T00:07:41;4.10;;;1.15;;
77955;SDS011;67152;36.266;32.294;2023-11-21T00:10:26;4.45;;;0.77;;
77955;SDS011;67152;36.266;32.294;2023-11-21T00:13:12;1.07;;;0.77;;
77955;SDS011;67152;36.266;32.294;2023-11-21T00:15:58;5.90;;;0.88;;
77955;SDS011;67152;36.266;32.294;2023-11-21T00:18:43;2.30;;;0.60;;
77955;SDS011;67152;36.266;32.294;2023-11-21T00:21:28;1.15;;;0.90;;
77955;SDS011;67152;36.266;32.294;2023-11-21T00:24:13;1.83;;;0.90;;
77955;SDS011;67152;36.266;32.294;2023-11-21T00:26:58;5.90;;;1.30;;
77955;SDS011;67152;36.266;32.294;2023-11-21T00:29:43;4.07;;;1.63;;
77955;SDS011;67152;36.266;32.294;2023-11-21T00:32:28;1.33;;;0.80;;
77955;SDS011;67152;36.266;32.294;2023-11-21T00:35:13;2.08;;;0.90;;
77955;SDS011;67152;36.266;32.294;2023-11-21T00:37:58;4.93;;;1.10;;
77955;SDS011;67152;36.266;32.294;2023-11-21T00:40:43;1.45;;;0.63;;
77955;SDS011;67152;36.266;32.294;2023-11-21T00:43:28;4.72;;;0.80;;
77955;SDS011;67152;36.266;32.294;2023-11-21T00:46:13;1.77;;;0.90;;
77955;SDS011;67152;36.266;32.294;2023-11-21T00:48:58;2.22;;;0.70;;
77955;SDS011;67152;36.266;32.294;2023-11-21T00:51:43;1.05;;;0.60;;
77955;SDS011;67152;36.266;32.294;2023-11-21T00:54:28;1.38;;;0.60;;
77955;SDS011;67152;36.266;32.294;2023-11-21T00:57:13;4.60;;;1.10;;
77955;SDS011;67152;36.266;32.294;2023-11-21T00:59:58;0.90;;;0.50;;
77955;SDS011;67152;36.266;32.294;2023-11-21T01:02:44;0.93;;;0.60;;
77955;SDS011;67152;36.266;32.294;2023-11-21T01:05:29;2.08;;;0.90;;
77955;SDS011;67152;36.266;32.294;2023-11-21T01:08:14;0.90;;;0.50;;
77955;SDS011;67152;36.266;32.294;2023-11-21T01:10:59;2.33;;;1.02;;
77955;SDS011;67152;36.266;32.294;2023-11-21T01:13:44;1.95;;;0.75;;
77955;SDS011;67152;36.266;32.294;2023-11-21T01:16:29;7.78;;;1.27;;
77955;SDS011;67152;36.266;32.294;2023-11-21T01:22:01;1.85;;;0.55;;
77955;SDS011;67152;36.266;32.294;2023-11-21T01:24:46;6.55;;;0.98;;
77955;SDS011;67152;36.266;32.294;2023-11-21T01:27:31;1.92;;;0.90;;
77955;SDS011;67152;36.266;32.294;2023-11-21T01:30:17;2.42;;;1.13;;
77955;SDS011;67152;36.266;32.294;2023-11-21T01:33:02;2.75;;;1.20;;
77955;SDS011;67152;36.266;32.294;2023-11-21T01:35:48;2.60;;;1.00;;
77955;SDS011;67152;36.266;32.294;2023-11-21T01:38:33;3.75;;;0.93;;
77955;SDS011;67152;36.266;32.294;2023-11-21T01:41:19;7.20;;;0.93;;
77955;SDS011;67152;36.266;32.294;2023-11-21T01:44:04;1.42;;;0.68;;
77955;SDS011;67152;36.266;32.294;2023-11-21T01:46:52;2.15;;;0.90;;
77955;SDS011;67152;36.266;32.294;2023-11-21T01:49:38;1.42;;;0.70;;
77955;SDS011;67152;36.266;32.294;2023-11-21T01:52:23;2.90;;;0.90;;
77955;SDS011;67152;36.266;32.294;2023-11-21T01:55:08;1.48;;;0.82;;
77955;SDS011;67152;36.266;32.294;2023-11-21T01:57:54;2.60;;;0.68;;
77955;SDS011;67152;36.266;32.294;2023-11-21T02:00:39;1.95;;;0.63;;
77955;SDS011;67152;36.266;32.294;2023-11-21T02:03:24;0.90;;;0.52;;
77955;SDS011;67152;36.266;32.294;2023-11-21T02:06:10;1.75;;;0.63;;
77955;SDS011;67152;36.266;32.294;2023-11-21T02:08:55;1.02;;;0.60;;
77955;SDS011;67152;36.266;32.294;2023-11-21T02:11:40;1.08;;;0.70;;
77955;SDS011;67152;36.266;32.294;2023-11-21T02:14:25;1.42;;;0.70;;
77955;SDS011;67152;36.266;32.294;2023-11-21T02:17:11;3.38;;;0.80;;
77955;SDS011;67152;36.266;32.294;2023-11-21T02:19:57;1.20;;;0.68;;
77955;SDS011;67152;36.266;32.294;2023-11-21T02:22:44;3.85;;;0.98;;
77955;SDS011;67152;36.266;32.294;2023-11-21T02:25:42;2.97;;;1.15;;
77955;SDS011;67152;36.266;32.294;2023-11-21T02:28:27;1.08;;;0.70;;
77955;SDS011;67152;36.266;32.294;2023-11-21T02:31:13;2.20;;;1.00;;
77955;SDS011;67152;36.266;32.294;2023-11-21T02:33:58;5.30;;;1.00;;
77955;SDS011;67152;36.266;32.294;2023-11-21T02:36:44;3.95;;;0.82;;
77955;SDS011;67152;36.266;32.294;2023-11-21T02:39:29;1.20;;;0.70;;
77955;SDS011;67152;36.266;32.294;2023-11-21T02:42:13;1.50;;;0.65;;
77955;SDS011;67152;36.266;32.294;2023-11-21T02:44:58;0.60;;;0.50;;
77955;SDS011;67152;36.266;32.294;2023-11-21T02:47:43;1.30;;;0.60;;
77955;SDS011;67152;36.266;32.294;2023-11-21T02:50:29;0.82;;;0.45;;
77955;SDS011;67152;36.266;32.294;2023-11-21T02:53:14;0.70;;;0.40;;
77955;SDS011;67152;36.266;32.294;2023-11-21T02:55:59;0.93;;;0.38;;
77955;SDS011;67152;36.266;32.294;2023-11-21T02:58:44;0.85;;;0.50;;
77955;SDS011;67152;36.266;32.294;2023-11-21T03:01:30;1.13;;;0.60;;
77955;SDS011;67152;36.266;32.294;2023-11-21T03:04:14;1.52;;;0.68;;
77955;SDS011;67152;36.266;32.294;2023-11-21T03:07:01;0.65;;;0.52;;
77955;SDS011;67152;36.266;32.294;2023-11-21T03:09:46;0.60;;;0.50;;
77955;SDS011;67152;36.266;32.294;2023-11-21T03:12:31;1.90;;;1.00;;
77955;SDS011;67152;36.266;32.294;2023-11-21T03:15:16;3.42;;;1.30;;
77955;SDS011;67152;36.266;32.294;2023-11-21T03:18:01;2.60;;;1.60;;
77955;SDS011;67152;36.266;32.294;2023-11-21T03:20:46;3.63;;;1.17;;
77955;SDS011;67152;36.266;32.294;2023-11-21T03:23:31;2.35;;;1.20;;
77955;SDS011;67152;36.266;32.294;2023-11-21T03:26:16;2.22;;;1.13;;
77955;SDS011;67152;36.266;32.294;2023-11-21T03:29:01;2.15;;;1.10;;
77955;SDS011;67152;36.266;32.294;2023-11-21T03:31:45;1.48;;;0.82;;
77955;SDS011;67152;36.266;32.294;2023-11-21T03:34:30;2.33;;;1.10;;
77955;SDS011;67152;36.266;32.294;2023-11-21T03:37:15;3.40;;;1.30;;
77955;SDS011;67152;36.266;32.294;2023-11-21T03:40:00;2.17;;;1.30;;
77955;SDS011;67152;36.266;32.294;2023-11-21T03:42:47;4.80;;;2.35;;
77955;SDS011;67152;36.266;32.294;2023-11-21T03:45:33;4.57;;;1.23;;
77955;SDS011;67152;36.266;32.294;2023-11-21T03:48:18;3.40;;;0.80;;
77955;SDS011;67152;36.266;32.294;2023-11-21T03:51:03;3.08;;;1.10;;
77955;SDS011;67152;36.266;32.294;2023-11-21T03:53:48;3.72;;;0.88;;
77955;SDS011;67152;36.266;32.294;2023-11-21T03:56:33;3.60;;;1.00;;
77955;SDS011;67152;36.266;32.294;2023-11-21T03:59:18;4.63;;;0.90;;
77955;SDS011;67152;36.266;32.294;2023-11-21T04:02:03;3.75;;;1.25;;
77955;SDS011;67152;36.266;32.294;2023-11-21T04:04:48;3.70;;;1.08;;
77955;SDS011;67152;36.266;32.294;2023-11-21T04:07:33;1.55;;;0.77;;
77955;SDS011;67152;36.266;32.294;2023-11-21T04:10:18;3.50;;;1.05;;
77955;SDS011;67152;36.266;32.294;2023-11-21T04:13:04;2.72;;;1.38;;
77955;SDS011;67152;36.266;32.294;2023-11-21T04:15:50;4.15;;;1.55;;
77955;SDS011;67152;36.266;32.294;2023-11-21T04:18:36;14.98;;;1.52;;
77955;SDS011;67152;36.266;32.294;2023-11-21T04:21:21;3.78;;;1.50;;
77955;SDS011;67152;36.266;32.294;2023-11-21T04:24:06;3.15;;;1.33;;
77955;SDS011;67152;36.266;32.294;2023-11-21T04:26:51;5.18;;;0.95;;
77955;SDS011;67152;36.266;32.294;2023-11-21T04:29:36;2.55;;;1.10;;
77955;SDS011;67152;36.266;32.294;2023-11-21T04:32:21;1.10;;;0.73;;
77955;SDS011;67152;36.266;32.294;2023-11-21T04:35:06;2.28;;;1.10;;
77955;SDS011;67152;36.266;32.294;2023-11-21T04:37:52;5.47;;;1.20;;
77955;SDS011;67152;36.266;32.294;2023-11-21T04:40:37;9.13;;;2.10;;
77955;SDS011;67152;36.266;32.294;2023-11-21T04:43:22;6.05;;;1.67;;
77955;SDS011;67152;36.266;32.294;2023-11-21T04:46:07;7.80;;;1.83;;
77955;SDS011;67152;36.266;32.294;2023-11-21T04:48:53;7.07;;;2.85;;
77955;SDS011;67152;36.266;32.294;2023-11-21T04:51:38;2.88;;;1.58;;
77955;SDS011;67152;36.266;32.294;2023-11-21T04:54:23;5.35;;;3.42;;
77955;SDS011;67152;36.266;32.294;2023-11-21T04:57:08;4.68;;;2.25;;
77955;SDS011;67152;36.266;32.294;2023-11-21T04:59:53;7.63;;;1.35;;
77955;SDS011;67152;36.266;32.294;2023-11-21T05:02:38;8.52;;;2.63;;
77955;SDS011;67152;36.266;32.294;2023-11-21T05:05:24;4.55;;;1.88;;
77955;SDS011;67152;36.266;32.294;2023-11-21T05:08:09;3.45;;;1.45;;
77955;SDS011;67152;36.266;32.294;2023-11-21T05:10:54;7.32;;;2.47;;
77955;SDS011;67152;36.266;32.294;2023-11-21T05:13:39;6.93;;;2.20;;
77955;SDS011;67152;36.266;32.294;2023-11-21T05:16:25;8.60;;;2.20;;
77955;SDS011;67152;36.266;32.294;2023-11-21T05:19:11;4.88;;;1.70;;
77955;SDS011;67152;36.266;32.294;2023-11-21T05:21:57;10.95;;;2.50;;
77955;SDS011;67152;36.266;32.294;2023-11-21T05:24:43;2.97;;;1.40;;
77955;SDS011;67152;36.266;32.294;2023-11-21T05:27:28;8.63;;;2.03;;
77955;SDS011;67152;36.266;32.294;2023-11-21T05:30:13;7.45;;;2.20;;
77955;SDS011;67152;36.266;32.294;2023-11-21T05:32:58;5.88;;;2.45;;
77955;SDS011;67152;36.266;32.294;2023-11-21T05:35:43;9.77;;;2.72;;
77955;SDS011;67152;36.266;32.294;2023-11-21T05:38:27;17.27;;;2.92;;
77955;SDS011;67152;36.266;32.294;2023-11-21T05:41:12;7.15;;;2.60;;
77955;SDS011;67152;36.266;32.294;2023-11-21T05:43:58;6.20;;;2.65;;
77955;SDS011;67152;36.266;32.294;2023-11-21T05:46:43;9.02;;;2.63;;
77955;SDS011;67152;36.266;32.294;2023-11-21T05:49:28;20.90;;;4.32;;
77955;SDS011;67152;36.266;32.294;2023-11-21T05:52:13;10.27;;;2.75;;
77955;SDS011;67152;36.266;32.294;2023-11-21T05:54:58;11.02;;;2.40;;
77955;SDS011;67152;36.266;32.294;2023-11-21T05:57:43;11.32;;;2.50;;
77955;SDS011;67152;36.266;32.294;2023-11-21T06:00:28;5.40;;;1.95;;
77955;SDS011;67152;36.266;32.294;2023-11-21T06:03:13;14.50;;;3.90;;
77955;SDS011;67152;36.266;32.294;2023-11-21T06:05:58;13.38;;;2.88;;
77955;SDS011;67152;36.266;32.294;2023-11-21T06:08:42;16.75;;;3.83;;
77955;SDS011;67152;36.266;32.294;2023-11-21T06:11:27;18.17;;;4.53;;
77955;SDS011;67152;36.266;32.294;2023-11-21T06:14:13;7.55;;;2.17;;
77955;SDS011;67152;36.266;32.294;2023-11-21T06:17:02;8.90;;;2.28;;
77955;SDS011;67152;36.266;32.294;2023-11-21T06:19:47;9.05;;;2.00;;
77955;SDS011;67152;36.266;32.294;2023-11-21T06:22:32;17.17;;;3.03;;
77955;SDS011;67152;36.266;32.294;2023-11-21T06:25:17;16.58;;;2.40;;
77955;SDS011;67152;36.266;32.294;2023-11-21T06:28:02;4.90;;;1.80;;
77955;SDS011;67152;36.266;32.294;2023-11-21T06:30:47;8.43;;;1.90;;
77955;SDS011;67152;36.266;32.294;2023-11-21T06:33:33;8.02;;;1.83;;
77955;SDS011;67152;36.266;32.294;2023-11-21T06:36:18;14.23;;;2.63;;
77955;SDS011;67152;36.266;32.294;2023-11-21T06:39:03;16.15;;;3.00;;
77955;SDS011;67152;36.266;32.294;2023-11-21T06:41:52;13.50;;;2.85;;
77955;SDS011;67152;36.266;32.294;2023-11-21T06:44:37;7.45;;;2.83;;
77955;SDS011;67152;36.266;32.294;2023-11-21T06:47:23;9.35;;;3.03;;
77955;SDS011;67152;36.266;32.294;2023-11-21T06:50:14;14.93;;;3.50;;
77955;SDS011;67152;36.266;32.294;2023-11-21T06:52:58;11.30;;;3.70;;
77955;SDS011;67152;36.266;32.294;2023-11-21T06:55:43;12.93;;;4.20;;
77955;SDS011;67152;36.266;32.294;2023-11-21T06:58:28;12.13;;;5.07;;
77955;SDS011;67152;36.266;32.294;2023-11-21T07:01:13;14.57;;;4.97;;
77955;SDS011;67152;36.266;32.294;2023-11-21T07:03:59;12.23;;;4.38;;
77955;SDS011;67152;36.266;32.294;2023-11-21T07:06:47;6.13;;;2.70;;
77955;SDS011;67152;36.266;32.294;2023-11-21T07:09:32;9.38;;;3.85;;
77955;SDS011;67152;36.266;32.294;2023-11-21T07:12:17;8.35;;;2.78;;
77955;SDS011;67152;36.266;32.294;2023-11-21T07:15:02;13.93;;;3.72;;
77955;SDS011;67152;36.266;32.294;2023-11-21T07:17:49;13.07;;;7.18;;
77955;SDS011;67152;36.266;32.294;2023-11-21T07:20:34;9.50;;;3.25;;
77955;SDS011;67152;36.266;32.294;2023-11-21T07:23:19;11.95;;;2.30;;
77955;SDS011;67152;36.266;32.294;2023-11-21T07:26:06;10.23;;;2.40;;
77955;SDS011;67152;36.266;32.294;2023-11-21T07:28:53;14.63;;;4.50;;
77955;SDS011;67152;36.266;32.294;2023-11-21T07:31:38;14.75;;;4.50;;
77955;SDS011;67152;36.266;32.294;2023-11-21T07:34:24;9.65;;;3.30;;
77955;SDS011;67152;36.266;32.294;2023-11-21T07:37:09;7.50;;;3.00;;
77955;SDS011;67152;36.266;32.294;2023-11-21T07:39:54;14.23;;;3.92;;
77955;SDS011;67152;36.266;32.294;2023-11-21T07:42:42;13.50;;;2.80;;
77955;SDS011;67152;36.266;32.294;2023-11-21T07:45:27;4.93;;;2.60;;
77955;SDS011;67152;36.266;32.294;2023-11-21T07:48:12;8.05;;;2.30;;
77955;SDS011;67152;36.266;32.294;2023-11-21T07:50:58;6.32;;;2.50;;
77955;SDS011;67152;36.266;32.294;2023-11-21T07:53:42;9.45;;;2.33;;
77955;SDS011;67152;36.266;32.294;2023-11-21T07:56:28;18.80;;;2.95;;
77955;SDS011;67152;36.266;32.294;2023-11-21T07:59:13;7.85;;;2.67;;
77955;SDS011;67152;36.266;32.294;2023-11-21T08:01:58;6.10;;;2.75;;
77955;SDS011;67152;36.266;32.294;2023-11-21T08:04:43;7.18;;;2.47;;
77955;SDS011;67152;36.266;32.294;2023-11-21T08:07:28;11.05;;;2.33;;
77955;SDS011;67152;36.266;32.294;2023-11-21T08:10:13;7.55;;;2.40;;
77955;SDS011;67152;36.266;32.294;2023-11-21T08:12:58;6.90;;;1.85;;
77955;SDS011;67152;36.266;32.294;2023-11-21T08:15:43;8.63;;;2.05;;
77955;SDS011;67152;36.266;32.294;2023-11-21T08:18:29;6.13;;;2.00;;
77955;SDS011;67152;36.266;32.294;2023-11-21T08:21:14;9.52;;;2.90;;
77955;SDS011;67152;36.266;32.294;2023-11-21T08:24:00;10.18;;;2.22;;
77955;SDS011;67152;36.266;32.294;2023-11-21T08:26:48;9.65;;;2.67;;
77955;SDS011;67152;36.266;32.294;2023-11-21T08:29:33;8.85;;;1.70;;
77955;SDS011;67152;36.266;32.294;2023-11-21T08:32:18;13.70;;;2.58;;
77955;SDS011;67152;36.266;32.294;2023-11-21T08:35:03;10.02;;;1.63;;
77955;SDS011;67152;36.266;32.294;2023-11-21T08:37:53;6.20;;;0.90;;
77955;SDS011;67152;36.266;32.294;2023-11-21T08:40:38;7.80;;;0.85;;
77955;SDS011;67152;36.266;32.294;2023-11-21T08:43:23;15.43;;;1.23;;
77955;SDS011;67152;36.266;32.294;2023-11-21T08:46:08;9.40;;;1.20;;
77955;SDS011;67152;36.266;32.294;2023-11-21T08:48:53;14.68;;;1.20;;
77955;SDS011;67152;36.266;32.294;2023-11-21T08:51:38;2.17;;;0.65;;
77955;SDS011;67152;36.266;32.294;2023-11-21T08:54:23;1.23;;;0.55;;
77955;SDS011;67152;36.266;32.294;2023-11-21T08:57:10;2.55;;;0.80;;
77955;SDS011;67152;36.266;32.294;2023-11-21T08:59:55;2.95;;;0.93;;
77955;SDS011;67152;36.266;32.294;2023-11-21T09:02:40;2.55;;;0.93;;
77955;SDS011;67152;36.266;32.294;2023-11-21T09:05:28;6.07;;;1.17;;
77955;SDS011;67152;36.266;32.294;2023-11-21T09:08:31;5.53;;;1.10;;
77955;SDS011;67152;36.266;32.294;2023-11-21T09:11:16;2.70;;;0.77;;
77955;SDS011;67152;36.266;32.294;2023-11-21T09:14:02;6.50;;;1.13;;
77955;SDS011;67152;36.266;32.294;2023-11-21T09:16:50;2.97;;;0.90;;
77955;SDS011;67152;36.266;32.294;2023-11-21T09:19:36;5.30;;;1.08;;
77955;SDS011;67152;36.266;32.294;2023-11-21T09:22:24;2.55;;;1.17;;
77955;SDS011;67152;36.266;32.294;2023-11-21T09:25:10;7.32;;;1.20;;
77955;SDS011;67152;36.266;32.294;2023-11-21T09:27:55;3.30;;;0.90;;
77955;SDS011;67152;36.266;32.294;2023-11-21T09:30:41;2.88;;;1.05;;
77955;SDS011;67152;36.266;32.294;2023-11-21T09:33:26;11.20;;;1.25;;
77955;SDS011;67152;36.266;32.294;2023-11-21T09:36:12;3.05;;;0.82;;
77955;SDS011;67152;36.266;32.294;2023-11-21T09:39:00;4.13;;;1.48;;
77955;SDS011;67152;36.266;32.294;2023-11-21T09:41:50;8.20;;;1.20;;
77955;SDS011;67152;36.266;32.294;2023-11-21T09:48:05;5.88;;;0.90;;
77955;SDS011;67152;36.266;32.294;2023-11-21T09:50:51;8.40;;;1.30;;
77955;SDS011;67152;36.266;32.294;2023-11-21T09:53:38;2.60;;;0.80;;
77955;SDS011;67152;36.266;32.294;2023-11-21T09:56:23;2.42;;;0.85;;
77955;SDS011;67152;36.266;32.294;2023-11-21T09:59:12;2.55;;;0.73;;
77955;SDS011;67152;36.266;32.294;2023-11-21T10:01:58;2.40;;;0.80;;
77955;SDS011;67152;36.266;32.294;2023-11-21T10:04:42;3.90;;;0.80;;
77955;SDS011;67152;36.266;32.294;2023-11-21T10:07:27;1.88;;;0.90;;
77955;SDS011;67152;36.266;32.294;2023-11-21T10:10:13;10.88;;;1.30;;
77955;SDS011;67152;36.266;32.294;2023-11-21T10:12:59;3.60;;;1.05;;
77955;SDS011;67152;36.266;32.294;2023-11-21T10:15:51;2.95;;;0.75;;
77955;SDS011;67152;36.266;32.294;2023-11-21T10:18:37;4.80;;;0.88;;
77955;SDS011;67152;36.266;32.294;2023-11-21T10:21:24;6.25;;;1.10;;
77955;SDS011;67152;36.266;32.294;2023-11-21T10:24:09;11.02;;;1.20;;
77955;SDS011;67152;36.266;32.294;2023-11-21T10:26:57;3.83;;;1.10;;
77955;SDS011;67152;36.266;32.294;2023-11-21T10:29:41;3.88;;;0.80;;
77955;SDS011;67152;36.266;32.294;2023-11-21T10:32:28;4.13;;;0.80;;
77955;SDS011;67152;36.266;32.294;2023-11-21T10:35:16;8.98;;;1.20;;
77955;SDS011;67152;36.266;32.294;2023-11-21T10:38:01;13.20;;;1.40;;
77955;SDS011;67152;36.266;32.294;2023-11-21T10:40:47;6.30;;;0.77;;
77955;SDS011;67152;36.266;32.294;2023-11-21T10:43:33;7.07;;;0.93;;
77955;SDS011;67152;36.266;32.294;2023-11-21T10:46:18;3.88;;;0.90;;
77955;SDS011;67152;36.266;32.294;2023-11-21T10:49:03;2.67;;;0.85;;
77955;SDS011;67152;36.266;32.294;2023-11-21T10:51:48;17.25;;;1.33;;
77955;SDS011;67152;36.266;32.294;2023-11-21T10:57:20;3.42;;;0.85;;
77955;SDS011;67152;36.266;32.294;2023-11-21T11:00:06;7.18;;;1.25;;
77955;SDS011;67152;36.266;32.294;2023-11-21T11:02:57;3.85;;;1.20;;
77955;SDS011;67152;36.266;32.294;2023-11-21T11:05:43;3.30;;;0.70;;
77955;SDS011;67152;36.266;32.294;2023-11-21T11:08:35;3.88;;;0.70;;
77955;SDS011;67152;36.266;32.294;2023-11-21T11:11:20;8.75;;;1.08;;
77955;SDS011;67152;36.266;32.294;2023-11-21T11:14:05;4.03;;;0.85;;
77955;SDS011;67152;36.266;32.294;2023-11-21T11:16:53;5.72;;;0.90;;
77955;SDS011;67152;36.266;32.294;2023-11-21T11:19:39;5.18;;;1.10;;
77955;SDS011;67152;36.266;32.294;2023-11-21T11:35:06;8.88;;;1.02;;
77955;SDS011;67152;36.266;32.294;2023-11-21T11:37:55;9.88;;;1.00;;
77955;SDS011;67152;36.266;32.294;2023-11-21T11:40:40;4.15;;;0.70;;
77955;SDS011;67152;36.266;32.294;2023-11-21T11:43:26;10.90;;;1.70;;
77955;SDS011;67152;36.266;32.294;2023-11-21T11:46:11;7.55;;;0.85;;
77955;SDS011;67152;36.266;32.294;2023-11-21T11:49:02;2.83;;;0.70;;
77955;SDS011;67152;36.266;32.294;2023-11-21T11:51:47;4.57;;;0.93;;
77955;SDS011;67152;36.266;32.294;2023-11-21T11:54:35;6.85;;;1.15;;
77955;SDS011;67152;36.266;32.294;2023-11-21T11:57:24;7.57;;;0.90;;
77955;SDS011;67152;36.266;32.294;2023-11-21T12:00:14;5.78;;;0.98;;
77955;SDS011;67152;36.266;32.294;2023-11-21T12:03:01;7.88;;;1.05;;
77955;SDS011;67152;36.266;32.294;2023-11-21T12:05:47;17.95;;;2.20;;
77955;SDS011;67152;36.266;32.294;2023-11-21T12:08:34;21.67;;;1.52;;
77955;SDS011;67152;36.266;32.294;2023-11-21T12:11:19;7.15;;;1.45;;
77955;SDS011;67152;36.266;32.294;2023-11-21T12:14:04;4.78;;;1.00;;
77955;SDS011;67152;36.266;32.294;2023-11-21T12:16:49;4.75;;;1.00;;
77955;SDS011;67152;36.266;32.294;2023-11-21T12:19:35;7.90;;;0.93;;
77955;SDS011;67152;36.266;32.294;2023-11-21T12:22:22;10.68;;;1.27;;
77955;SDS011;67152;36.266;32.294;2023-11-21T12:25:07;3.90;;;0.73;;
77955;SDS011;67152;36.266;32.294;2023-11-21T12:27:52;7.40;;;1.75;;
77955;SDS011;67152;36.266;32.294;2023-11-21T12:30:37;13.82;;;1.20;;
77955;SDS011;67152;36.266;32.294;2023-11-21T12:33:24;8.75;;;0.90;;
77955;SDS011;67152;36.266;32.294;2023-11-21T12:36:10;9.97;;;1.30;;
77955;SDS011;67152;36.266;32.294;2023-11-21T12:38:55;5.65;;;0.73;;
77955;SDS011;67152;36.266;32.294;2023-11-21T12:41:41;3.42;;;0.75;;
77955;SDS011;67152;36.266;32.294;2023-11-21T12:44:26;10.95;;;1.45;;
77955;SDS011;67152;36.266;32.294;2023-11-21T12:47:10;4.57;;;0.88;;
77955;SDS011;67152;36.266;32.294;2023-11-21T12:50:00;11.10;;;1.55;;
77955;SDS011;67152;36.266;32.294;2023-11-21T12:52:47;7.43;;;0.82;;
77955;SDS011;67152;36.266;32.294;2023-11-21T12:55:36;4.50;;;0.80;;
77955;SDS011;67152;36.266;32.294;2023-11-21T12:58:24;1.48;;;0.60;;
77955;SDS011;67152;36.266;32.294;2023-11-21T13:01:09;7.78;;;0.90;;
77955;SDS011;67152;36.266;32.294;2023-11-21T13:04:02;14.82;;;0.98;;
77955;SDS011;67152;36.266;32.294;2023-11-21T13:06:48;4.20;;;0.70;;
77955;SDS011;67152;36.266;32.294;2023-11-21T13:09:33;1.95;;;0.82;;
77955;SDS011;67152;36.266;32.294;2023-11-21T13:12:23;2.03;;;0.60;;
77955;SDS011;67152;36.266;32.294;2023-11-21T13:15:09;7.53;;;0.93;;
77955;SDS011;67152;36.266;32.294;2023-11-21T13:17:54;3.80;;;0.70;;
77955;SDS011;67152;36.266;32.294;2023-11-21T13:20:42;3.22;;;0.70;;
77955;SDS011;67152;36.266;32.294;2023-11-21T13:23:27;1.63;;;0.57;;
77955;SDS011;67152;36.266;32.294;2023-11-21T13:26:13;12.10;;;1.05;;
77955;SDS011;67152;36.266;32.294;2023-11-21T13:28:59;1.48;;;0.45;;
77955;SDS011;67152;36.266;32.294;2023-11-21T13:31:44;6.38;;;1.00;;
77955;SDS011;67152;36.266;32.294;2023-11-21T13:34:31;6.25;;;0.50;;
77955;SDS011;67152;36.266;32.294;2023-11-21T13:37:16;7.13;;;0.90;;
77955;SDS011;67152;36.266;32.294;2023-11-21T13:40:01;2.92;;;0.70;;
77955;SDS011;67152;36.266;32.294;2023-11-21T13:42:54;2.90;;;0.65;;
77955;SDS011;67152;36.266;32.294;2023-11-21T13:45:39;9.85;;;1.30;;
77955;SDS011;67152;36.266;32.294;2023-11-21T13:48:25;4.70;;;0.80;;
77955;SDS011;67152;36.266;32.294;2023-11-21T13:51:25;2.15;;;0.57;;
77955;SDS011;67152;36.266;32.294;2023-11-21T13:54:25;2.35;;;0.60;;
77955;SDS011;67152;36.266;32.294;2023-11-21T13:57:10;2.13;;;0.40;;
77955;SDS011;67152;36.266;32.294;2023-11-21T13:59:55;6.70;;;0.70;;
77955;SDS011;67152;36.266;32.294;2023-11-21T14:02:42;2.40;;;0.40;;
77955;SDS011;67152;36.266;32.294;2023-11-21T14:05:27;6.32;;;0.88;;
77955;SDS011;67152;36.266;32.294;2023-11-21T14:08:14;7.43;;;0.80;;
77955;SDS011;67152;36.266;32.294;2023-11-21T14:11:04;6.68;;;0.90;;
77955;SDS011;67152;36.266;32.294;2023-11-21T14:16:35;4.35;;;0.70;;
77955;SDS011;67152;36.266;32.294;2023-11-21T14:19:20;3.17;;;0.90;;
77955;SDS011;67152;36.266;32.294;2023-11-21T14:22:05;11.25;;;1.00;;
77955;SDS011;67152;36.266;32.294;2023-11-21T14:24:53;4.93;;;0.75;;
77955;SDS011;67152;36.266;32.294;2023-11-21T14:27:40;14.55;;;1.45;;
77955;SDS011;67152;36.266;32.294;2023-11-21T14:30:25;8.27;;;0.50;;
77955;SDS011;67152;36.266;32.294;2023-11-21T14:33:11;8.90;;;0.83;;
77955;SDS011;67152;36.266;32.294;2023-11-21T14:35:57;2.42;;;0.75;;
77955;SDS011;67152;36.266;32.294;2023-11-21T14:38:42;6.97;;;0.80;;
77955;SDS011;67152;36.266;32.294;2023-11-21T14:41:26;27.05;;;2.22;;
77955;SDS011;67152;36.266;32.294;2023-11-21T14:44:13;7.30;;;0.80;;
77955;SDS011;67152;36.266;32.294;2023-11-21T14:49:47;5.40;;;1.08;;
77955;SDS011;67152;36.266;32.294;2023-11-21T14:52:38;19.38;;;2.00;;
77955;SDS011;67152;36.266;32.294;2023-11-21T14:55:39;15.10;;;1.60;;
77955;SDS011;67152;36.266;32.294;2023-11-21T14:58:29;11.60;;;1.75;;
77955;SDS011;67152;36.266;32.294;2023-11-21T15:01:14;6.50;;;1.20;;
77955;SDS011;67152;36.266;32.294;2023-11-21T15:04:08;7.95;;;1.58;;
77955;SDS011;67152;36.266;32.294;2023-11-21T15:06:59;7.28;;;1.80;;
77955;SDS011;67152;36.266;32.294;2023-11-21T15:09:43;21.73;;;4.97;;
77955;SDS011;67152;36.266;32.294;2023-11-21T15:12:29;16.80;;;5.25;;
77955;SDS011;67152;36.266;32.294;2023-11-21T15:15:17;14.40;;;5.50;;
77955;SDS011;67152;36.266;32.294;2023-11-21T15:18:03;31.15;;;6.50;;
77955;SDS011;67152;36.266;32.294;2023-11-21T15:20:47;18.73;;;6.22;;
77955;SDS011;67152;36.266;32.294;2023-11-21T15:23:32;28.35;;;7.05;;
77955;SDS011;67152;36.266;32.294;2023-11-21T15:26:19;21.27;;;7.18;;
77955;SDS011;67152;36.266;32.294;2023-11-21T15:29:04;26.60;;;7.57;;
77955;SDS011;67152;36.266;32.294;2023-11-21T15:32:10;19.95;;;8.45;;
77955;SDS011;67152;36.266;32.294;2023-11-21T15:34:55;44.03;;;9.70;;
77955;SDS011;67152;36.266;32.294;2023-11-21T15:37:40;15.90;;;8.02;;
77955;SDS011;67152;36.266;32.294;2023-11-21T15:40:25;21.13;;;7.20;;
77955;SDS011;67152;36.266;32.294;2023-11-21T15:43:10;17.02;;;7.75;;
77955;SDS011;67152;36.266;32.294;2023-11-21T15:45:55;26.42;;;9.60;;
77955;SDS011;67152;36.266;32.294;2023-11-21T15:48:41;14.93;;;7.68;;
77955;SDS011;67152;36.266;32.294;2023-11-21T15:51:33;20.92;;;7.97;;
77955;SDS011;67152;36.266;32.294;2023-11-21T15:54:21;19.08;;;6.60;;
77955;SDS011;67152;36.266;32.294;2023-11-21T15:57:26;13.35;;;7.05;;
77955;SDS011;67152;36.266;32.294;2023-11-21T16:00:15;17.15;;;7.00;;
77955;SDS011;67152;36.266;32.294;2023-11-21T16:03:06;21.25;;;7.57;;
77955;SDS011;67152;36.266;32.294;2023-11-21T16:05:53;28.40;;;7.63;;
77955;SDS011;67152;36.266;32.294;2023-11-21T16:08:38;26.75;;;8.73;;
77955;SDS011;67152;36.266;32.294;2023-11-21T16:11:23;19.38;;;6.85;;
77955;SDS011;67152;36.266;32.294;2023-11-21T16:14:08;23.63;;;7.95;;
77955;SDS011;67152;36.266;32.294;2023-11-21T16:16:54;28.25;;;9.55;;
77955;SDS011;67152;36.266;32.294;2023-11-21T16:19:39;28.48;;;11.60;;
77955;SDS011;67152;36.266;32.294;2023-11-21T16:22:24;29.52;;;11.35;;
77955;SDS011;67152;36.266;32.294;2023-11-21T16:25:12;26.88;;;11.43;;
77955;SDS011;67152;36.266;32.294;2023-11-21T16:27:58;28.38;;;11.55;;
77955;SDS011;67152;36.266;32.294;2023-11-21T16:30:48;23.73;;;11.07;;
77955;SDS011;67152;36.266;32.294;2023-11-21T16:33:34;20.67;;;10.32;;
77955;SDS011;67152;36.266;32.294;2023-11-21T16:36:20;22.70;;;10.15;;
77955;SDS011;67152;36.266;32.294;2023-11-21T16:39:06;31.98;;;10.07;;
77955;SDS011;67152;36.266;32.294;2023-11-21T16:41:51;25.38;;;10.43;;
77955;SDS011;67152;36.266;32.294;2023-11-21T16:44:37;25.92;;;9.25;;
77955;SDS011;67152;36.266;32.294;2023-11-21T16:47:22;30.38;;;8.95;;
77955;SDS011;67152;36.266;32.294;2023-11-21T16:50:07;12.88;;;7.20;;